Lebanon, IN (46052)

2:27 PM EDT on July 30, 2016 (GMT -0400)
Hawks Haven | | Change Station

Elev 935 ft 40.07 °N, 86.49 °W | Updated 14 seconds ago

Mostly Cloudy
Mostly Cloudy
86.5 °F
Feels Like 92 °F
N
5.8
Wind Variable Wind from WSW
Gusts 9.9 mph

Today
High -- | Low -- °F
--% Chance of Precip.
Yesterday
High -- | Low -- °F
Precip. -- in
Pressure 29.98 in
Visibility 10.0 miles
Clouds Scattered Clouds 3600 ft
Mostly Cloudy 4700 ft
Mostly Cloudy 6000 ft
Heat Index 92 °F
Dew Point 71 °F
Humidity 61%
Rainfall 0.00 in
Snow Depth Not available.
6:42 AM 9:01 PM
Waning Crescent, 12% visible
METAR KTYQ 301815Z AUTO 27007KT 10SM SCT036 BKN047 BKN060 27/20 A2998 RMK AO2 T02710198
Pressure 29.98 in
Visibility 10.0 miles
Clouds Scattered Clouds 3600 ft
Mostly Cloudy 4700 ft
Mostly Cloudy 6000 ft
Heat Index 92 °F
Dew Point 71 °F
Humidity 61%
Rainfall 0.00 in
Snow Depth Not available.
6:42 AM 9:01 PM
Waning Crescent, 12% visible
METAR KTYQ 301815Z AUTO 27007KT 10SM SCT036 BKN047 BKN060 27/20 A2998 RMK AO2 T02710198

10-Day Weather Forecast

Almanac

Astronomy

Jul. 30, 2016 Rise Set
Actual Time
Civil Twilight
Nautical Twilight
Astronomical Twilight
Moon
Length of Visible Light
Length of Day
Tomorrow will be .
, % of the Moon is Illuminated

Today's Extremes

State Highs State Lows

Community

WunderPhotos

Upload Photos

1,928,608 photos uploaded!

WunderBlog® & News

Nearby

Air Quality

  Air Quality AQ Index Pollutant
Not available.

Snow Depth

Station Depth Elevation

Earthquake Activity

City Distance Mag. Time & Date
Minimum magnitude displayed is 2.5.

Coastal Water Temperatures

Place Temperature

Stations

Nearby Weather Stations

Station Location Temp. Windchill Dew Point Humidity Wind Precip. Elev Updated Type
                   

Watches & Warnings

There are currently no watches in effect.